Time;durP1;ratioP1;P1;durP2;ratioP2;P2;SDS_P1;SDS_P2;PMS_P1;PMS_P2;Temp;Humidity;BMP_temperature;BMP_pressure;BME280_temperature;BME280_humidity;BME280_pressure;Samples;Min_cycle;Max_cycle;Signal;HPM_P1;HPM_P2
2023/08/22 00:00:45;;;;;;;5.63;1.58;;;17.80;99.90;;;;;;5055085;28;20664;-72
2023/08/22 00:03:11;;;;;;;4.82;0.98;;;17.80;99.90;;;;;;5055008;28;20169;-71
2023/08/22 00:05:37;;;;;;;7.35;1.15;;;17.90;99.90;;;;;;5055038;28;20173;-71
2023/08/22 00:08:05;;;;;;;9.23;1.77;;;17.70;99.90;;;;;;5054937;28;20579;-72
2023/08/22 00:10:34;;;;;;;4.07;1.13;;;18.00;99.90;;;;;;5055133;28;20169;-71
2023/08/22 00:13:00;;;;;;;3.80;1.13;;;;;;;;;;5054785;28;20218;-70
2023/08/22 00:15:26;;;;;;;6.43;1.35;;;17.70;99.90;;;;;;5054642;28;20252;-71
2023/08/22 00:17:51;;;;;;;6.63;1.50;;;17.80;99.90;;;;;;5054622;28;20340;-71
2023/08/22 00:20:17;;;;;;;3.80;1.38;;;17.90;99.90;;;;;;5054725;28;20180;-71
2023/08/22 00:22:43;;;;;;;5.15;1.38;;;17.60;99.90;;;;;;5054654;28;20271;-71
2023/08/22 00:25:09;;;;;;;7.22;1.45;;;17.80;99.90;;;;;;5054567;28;20561;-72
2023/08/22 00:27:35;;;;;;;5.07;1.55;;;17.90;99.90;;;;;;5054391;28;20583;-71
2023/08/22 00:30:02;;;;;;;3.45;1.20;;;17.70;99.90;;;;;;5054537;28;20180;-71
2023/08/22 00:32:28;;;;;;;5.78;1.50;;;17.70;99.90;;;;;;5054593;28;20165;-71
2023/08/22 00:34:53;;;;;;;2.42;1.00;;;17.70;99.90;;;;;;5054368;28;20208;-71
2023/08/22 00:37:19;;;;;;;3.80;1.20;;;15.10;99.90;;;;;;5054339;28;20516;-72
2023/08/22 00:39:45;;;;;;;5.13;1.10;;;17.70;99.90;;;;;;5052982;28;20213;-72
2023/08/22 00:42:11;;;;;;;4.00;1.02;;;17.70;99.90;;;;;;5054360;28;20174;-72
2023/08/22 00:44:36;;;;;;;3.58;1.45;;;17.70;99.90;;;;;;5054278;28;20217;-71
2023/08/22 00:47:03;;;;;;;6.50;1.17;;;17.80;99.90;;;;;;5054147;28;20169;-71
2023/08/22 00:49:29;;;;;;;4.53;1.25;;;17.80;99.90;;;;;;5054151;28;20172;-72
2023/08/22 00:51:58;;;;;;;6.85;1.15;;;17.80;99.90;;;;;;5054654;28;20536;-72
2023/08/22 00:54:26;;;;;;;3.67;1.05;;;17.80;99.90;;;;;;5054035;28;20208;-73
2023/08/22 00:56:52;;;;;;;4.60;1.20;;;17.80;99.90;;;;;;5054171;28;20173;-72
2023/08/22 00:59:18;;;;;;;5.18;1.95;;;17.60;99.90;;;;;;5054196;28;20207;-71
2023/08/22 01:01:44;;;;;;;3.45;0.85;;;17.90;99.90;;;;;;5054058;28;20197;-71
2023/08/22 01:04:09;;;;;;;3.83;1.42;;;17.80;99.90;;;;;;5053822;28;20278;-71
2023/08/22 01:06:38;;;;;;;2.58;1.10;;;17.70;99.90;;;;;;5052890;28;20176;-71
2023/08/22 01:09:42;;;;;;;5.05;1.02;;;17.90;99.90;;;;;;5054007;28;20218;-71
2023/08/22 01:12:16;;;;;;;4.95;1.30;;;18.10;99.90;;;;;;5053800;28;20176;-71
2023/08/22 01:14:47;;;;;;;5.70;1.30;;;17.90;99.90;;;;;;5053495;28;20180;-71
2023/08/22 01:17:14;;;;;;;3.58;1.30;;;17.70;99.90;;;;;;5053547;28;20629;-71
2023/08/22 01:19:39;;;;;;;3.33;1.10;;;17.90;99.90;;;;;;5053570;28;20291;-71
2023/08/22 01:22:05;;;;;;;2.47;0.88;;;17.90;99.90;;;;;;5053505;28;20702;-71
2023/08/22 01:24:30;;;;;;;2.30;1.27;;;17.80;99.90;;;;;;5052430;28;20169;-71
2023/08/22 01:26:56;;;;;;;7.10;1.17;;;17.90;99.90;;;;;;5053403;28;20257;-71
2023/08/22 01:29:46;;;;;;;5.22;1.30;;;17.90;99.90;;;;;;5053331;28;20536;-71
2023/08/22 01:32:32;;;;;;;2.15;0.85;;;17.80;99.90;;;;;;5052209;28;20165;-71
2023/08/22 01:35:02;;;;;;;4.25;1.00;;;18.00;99.90;;;;;;5053330;28;20186;-71
2023/08/22 01:37:30;;;;;;;3.58;1.10;;;17.80;99.90;;;;;;5053233;28;20636;-71
2023/08/22 01:39:58;;;;;;;4.97;1.33;;;17.70;99.90;;;;;;5053187;28;20251;-71
2023/08/22 01:42:24;;;;;;;4.22;1.05;;;17.70;99.90;;;;;;5051939;28;20174;-71
2023/08/22 01:44:50;;;;;;;4.00;1.25;;;17.50;99.90;;;;;;5053288;28;20181;-71
2023/08/22 01:47:15;;;;;;;7.55;1.10;;;17.70;99.90;;;;;;5052897;28;20172;-71
2023/08/22 01:49:41;;;;;;;2.63;0.95;;;17.80;99.90;;;;;;5068448;28;20178;-72
2023/08/22 01:52:07;;;;;;;5.57;1.23;;;17.60;99.90;;;;;;5053015;28;20224;-71
2023/08/22 01:54:38;;;;;;;5.50;1.40;;;17.60;99.90;;;;;;5053065;28;20176;-72
2023/08/22 01:57:04;;;;;;;5.22;1.50;;;17.60;99.90;;;;;;5053010;28;20576;-72
2023/08/22 01:59:30;;;;;;;6.35;1.17;;;17.60;99.90;;;;;;5052798;28;20227;-72
2023/08/22 02:01:55;;;;;;;8.35;1.30;;;17.60;99.90;;;;;;5052864;28;20552;-72
2023/08/22 02:04:21;;;;;;;5.72;1.20;;;;;;;;;;5052798;28;20173;-72
2023/08/22 02:06:47;;;;;;;2.03;0.93;;;17.00;99.90;;;;;;5052765;28;20253;-72
2023/08/22 02:09:13;;;;;;;1.98;0.90;;;;;;;;;;5051339;28;20589;-72
2023/08/22 02:11:39;;;;;;;5.03;1.08;;;17.50;99.90;;;;;;5052732;28;20173;-72
2023/08/22 02:14:05;;;;;;;5.82;1.05;;;17.70;99.90;;;;;;5052842;28;20173;-72
2023/08/22 02:16:30;;;;;;;4.85;1.10;;;17.70;99.90;;;;;;5052399;28;20173;-73
2023/08/22 02:18:56;;;;;;;5.60;1.10;;;17.70;99.90;;;;;;5052222;28;20208;-72
2023/08/22 02:21:21;;;;;;;5.22;1.15;;;17.70;99.90;;;;;;5052411;28;20601;-73
2023/08/22 02:23:47;;;;;;;3.58;0.90;;;17.70;99.90;;;;;;5052533;28;20169;-72
2023/08/22 02:26:13;;;;;;;4.03;1.30;;;17.70;99.90;;;;;;5052262;28;20568;-73
2023/08/22 02:28:39;;;;;;;4.60;1.00;;;;;;;;;;5052443;28;20180;-71
2023/08/22 02:31:04;;;;;;;4.82;1.10;;;17.70;99.90;;;;;;5052252;28;20693;-71
2023/08/22 02:33:30;;;;;;;3.55;1.10;;;17.70;99.90;;;;;;5052203;28;20177;-71
2023/08/22 02:35:55;;;;;;;3.10;1.10;;;17.60;99.90;;;;;;5050777;28;20231;-72
2023/08/22 02:38:21;;;;;;;2.78;0.90;;;17.70;99.90;;;;;;5050899;28;20235;-72
2023/08/22 02:40:47;;;;;;;6.25;1.10;;;;;;;;;;5052149;28;20643;-72
2023/08/22 02:43:13;;;;;;;2.92;0.98;;;17.60;99.90;;;;;;5050710;28;20259;-72
2023/08/22 02:45:38;;;;;;;4.78;1.30;;;17.70;99.90;;;;;;5050785;28;20165;-72
2023/08/22 02:48:05;;;;;;;3.33;1.30;;;17.60;99.90;;;;;;5050788;28;20697;-72
2023/08/22 02:50:30;;;;;;;4.78;1.17;;;17.70;99.90;;;;;;5050391;28;20327;-71
2023/08/22 02:52:56;;;;;;;3.05;0.90;;;17.60;99.90;;;;;;5051880;28;20256;-71
2023/08/22 02:55:22;;;;;;;4.05;1.10;;;17.60;99.90;;;;;;5052139;28;20287;-71
2023/08/22 02:57:47;;;;;;;3.67;1.50;;;18.00;99.90;;;;;;5051766;28;20751;-72
2023/08/22 03:00:14;;;;;;;5.78;1.27;;;17.60;99.90;;;;;;5051680;28;20208;-71
2023/08/22 03:02:40;;;;;;;4.18;1.30;;;17.60;99.90;;;;;;5051709;28;20168;-71
2023/08/22 03:05:09;;;;;;;2.33;0.90;;;17.60;99.90;;;;;;5051677;28;20192;-71
2023/08/22 03:07:35;;;;;;;4.45;1.17;;;17.80;99.90;;;;;;5050303;28;20180;-71
2023/08/22 03:10:00;;;;;;;5.22;1.02;;;17.40;99.90;;;;;;5051433;28;20177;-70
2023/08/22 03:12:26;;;;;;;6.97;1.13;;;17.60;99.90;;;;;;5051438;28;20173;-71
2023/08/22 03:14:51;;;;;;;2.90;1.05;;;17.60;99.90;;;;;;5050312;28;20173;-72
2023/08/22 03:17:17;;;;;;;2.25;0.98;;;;;;;;;;5049996;28;20173;-73
2023/08/22 03:19:43;;;;;;;3.78;1.20;;;;;;;;;;5051294;28;20216;-72
2023/08/22 03:22:09;;;;;;;4.53;1.15;;;17.60;99.90;;;;;;5051415;28;20593;-70
2023/08/22 03:24:35;;;;;;;2.42;0.85;;;17.60;99.90;;;;;;5051617;28;20169;-70
2023/08/22 03:27:00;;;;;;;5.57;0.90;;;17.60;99.90;;;;;;5051068;28;20699;-71
2023/08/22 03:29:26;;;;;;;5.35;1.27;;;17.60;99.90;;;;;;5049735;28;20644;-71
2023/08/22 03:31:51;;;;;;;7.55;1.52;;;17.60;99.90;;;;;;5050992;28;20177;-71
2023/08/22 03:34:17;;;;;;;3.97;1.17;;;17.60;99.90;;;;;;5051130;28;20169;-71
2023/08/22 03:36:42;;;;;;;5.90;1.00;;;17.60;99.90;;;;;;5051478;28;20188;-71
2023/08/22 03:39:08;;;;;;;3.30;0.80;;;17.60;99.90;;;;;;5050950;28;20212;-71
2023/08/22 03:41:34;;;;;;;2.00;0.90;;;17.50;99.90;;;;;;5051075;28;20204;-71
2023/08/22 03:44:00;;;;;;;6.18;1.15;;;;;;;;;;5051180;28;20173;-70
2023/08/22 03:46:25;;;;;;;2.80;0.90;;;17.50;99.90;;;;;;5050907;28;20172;-71
2023/08/22 03:48:51;;;;;;;3.22;0.75;;;18.30;99.90;;;;;;5050918;28;20181;-71
2023/08/22 03:51:16;;;;;;;2.72;1.00;;;17.50;99.90;;;;;;5050892;28;20165;-71
2023/08/22 03:53:42;;;;;;;2.83;0.88;;;;;;;;;;5051136;28;20169;-71
2023/08/22 03:56:08;;;;;;;3.92;0.90;;;17.50;99.90;;;;;;5050946;28;20338;-71
2023/08/22 03:58:33;;;;;;;4.40;1.00;;;17.60;99.90;;;;;;5050795;28;20209;-71
2023/08/22 04:01:03;;;;;;;2.10;0.70;;;17.50;99.90;;;;;;5050911;28;20176;-71
2023/08/22 04:03:29;;;;;;;7.10;1.38;;;17.50;99.90;;;;;;5050819;28;20169;-71
2023/08/22 04:05:55;;;;;;;4.20;0.70;;;17.50;99.90;;;;;;5049811;28;20259;-71
2023/08/22 04:08:21;;;;;;;3.20;0.80;;;17.60;99.90;;;;;;5050989;28;20200;-71
2023/08/22 04:10:47;;;;;;;2.58;0.70;;;17.60;99.90;;;;;;5051212;28;20222;-71
2023/08/22 04:13:13;;;;;;;1.90;0.93;;;17.60;99.90;;;;;;5049706;28;20264;-70
2023/08/22 04:15:39;;;;;;;5.53;1.00;;;17.70;99.90;;;;;;5050732;28;20205;-71
2023/08/22 04:18:06;;;;;;;2.80;0.90;;;17.60;99.90;;;;;;5050619;28;20166;-70
2023/08/22 04:20:32;;;;;;;2.63;0.80;;;17.60;99.90;;;;;;5050686;28;20640;-70
2023/08/22 04:22:57;;;;;;;6.63;1.30;;;17.60;99.90;;;;;;5050913;28;20177;-70
2023/08/22 04:25:23;;;;;;;1.92;0.70;;;;;;;;;;5050799;28;20535;-72
2023/08/22 04:27:49;;;;;;;4.57;0.95;;;17.60;99.90;;;;;;5050618;28;20224;-70
2023/08/22 04:30:15;;;;;;;1.85;0.60;;;17.60;99.90;;;;;;5050716;28;20204;-71
2023/08/22 04:32:40;;;;;;;6.72;0.70;;;17.60;99.90;;;;;;5050636;28;20173;-71
2023/08/22 04:35:06;;;;;;;1.98;0.70;;;17.50;99.90;;;;;;5050671;28;20660;-71
2023/08/22 04:37:32;;;;;;;3.90;0.93;;;17.60;99.90;;;;;;5050791;28;20177;-71
2023/08/22 04:39:58;;;;;;;2.55;0.70;;;17.60;99.90;;;;;;5050491;28;20560;-71
2023/08/22 04:42:24;;;;;;;1.98;0.63;;;17.50;99.90;;;;;;5053516;28;20628;-71
2023/08/22 04:44:50;;;;;;;3.88;0.80;;;17.50;99.90;;;;;;5054432;28;20185;-71
2023/08/22 04:47:15;;;;;;;4.75;0.70;;;17.70;99.90;;;;;;5054185;28;20176;-71
2023/08/22 04:49:41;;;;;;;2.35;0.77;;;17.60;99.90;;;;;;5054319;28;20184;-71
2023/08/22 04:52:07;;;;;;;9.25;1.10;;;17.70;99.90;;;;;;5054145;28;20525;-71
2023/08/22 04:54:33;;;;;;;5.28;0.60;;;17.60;99.90;;;;;;5054089;28;20543;-71
2023/08/22 04:56:59;;;;;;;3.03;0.88;;;17.70;99.90;;;;;;5054181;28;20319;-71
2023/08/22 04:59:24;;;;;;;4.15;0.75;;;17.70;99.90;;;;;;5053872;28;20727;-71
2023/08/22 05:01:50;;;;;;;2.28;0.80;;;17.50;99.90;;;;;;5053938;28;20169;-71
2023/08/22 05:04:17;;;;;;;4.20;0.90;;;17.70;99.90;;;;;;5054121;28;20663;-71
2023/08/22 05:06:42;;;;;;;2.58;0.60;;;17.70;99.90;;;;;;5053869;28;20210;-71
2023/08/22 05:09:09;;;;;;;1.02;0.50;;;17.70;99.90;;;;;;5052498;28;20173;-70
2023/08/22 05:11:35;;;;;;;3.22;0.70;;;17.60;99.90;;;;;;5053750;28;20181;-70
2023/08/22 05:14:01;;;;;;;3.92;0.80;;;17.60;99.90;;;;;;5053730;28;20252;-70
2023/08/22 05:16:26;;;;;;;3.83;1.02;;;17.50;99.90;;;;;;5052193;28;20579;-70
2023/08/22 05:18:52;;;;;;;4.00;0.65;;;17.50;99.90;;;;;;5053829;28;20227;-71
2023/08/22 05:21:18;;;;;;;2.35;0.63;;;17.50;99.90;;;;;;5053746;28;20204;-71
2023/08/22 05:23:43;;;;;;;2.45;0.60;;;17.30;99.90;;;;;;5053469;28;20256;-71
2023/08/22 05:26:09;;;;;;;2.03;0.63;;;17.40;99.90;;;;;;5053442;28;20241;-72
2023/08/22 05:28:34;;;;;;;3.50;1.13;;;17.50;99.90;;;;;;5053577;28;20169;-70
2023/08/22 05:31:00;;;;;;;2.13;0.60;;;17.50;99.90;;;;;;5053328;28;20161;-71
2023/08/22 05:33:25;;;;;;;3.30;0.70;;;17.50;99.90;;;;;;5053613;28;20173;-72
2023/08/22 05:35:51;;;;;;;3.03;0.82;;;17.50;99.90;;;;;;5053507;28;20165;-72
2023/08/22 05:38:17;;;;;;;2.05;0.90;;;17.60;99.90;;;;;;5053102;28;20271;-71
2023/08/22 05:40:42;;;;;;;5.70;1.15;;;17.60;99.90;;;;;;5053231;28;20633;-71
2023/08/22 05:43:08;;;;;;;6.45;1.00;;;17.50;99.90;;;;;;5053298;28;20177;-72
2023/08/22 05:45:33;;;;;;;5.13;0.77;;;17.60;99.90;;;;;;5052930;28;20624;-72
2023/08/22 05:47:59;;;;;;;3.65;0.70;;;17.60;99.90;;;;;;5051775;28;20173;-72
2023/08/22 05:50:25;;;;;;;4.78;0.70;;;17.60;99.90;;;;;;5053024;28;20652;-72
2023/08/22 05:52:51;;;;;;;6.35;0.65;;;17.50;99.90;;;;;;5052450;28;20189;-72
2023/08/22 05:55:16;;;;;;;3.20;0.60;;;17.60;99.90;;;;;;5052974;28;20177;-72
2023/08/22 05:57:42;;;;;;;4.40;0.75;;;17.60;99.90;;;;;;5052960;28;20643;-72
2023/08/22 06:00:08;;;;;;;2.95;0.95;;;17.60;99.90;;;;;;5052802;28;20205;-72
2023/08/22 06:02:35;;;;;;;3.13;0.50;;;17.60;99.90;;;;;;5051501;28;20275;-72
2023/08/22 06:05:01;;;;;;;2.53;0.60;;;17.60;99.90;;;;;;5052792;28;20165;-73
2023/08/22 06:07:26;;;;;;;3.13;0.60;;;17.60;99.90;;;;;;5051466;28;20808;-72
2023/08/22 06:09:52;;;;;;;2.78;0.68;;;17.50;99.90;;;;;;5050274;28;20165;-71
2023/08/22 06:12:18;;;;;;;5.45;0.68;;;17.60;99.90;;;;;;5046437;28;20213;-71
2023/08/22 06:14:44;;;;;;;4.22;0.73;;;17.60;99.90;;;;;;5034844;28;20215;-72
2023/08/22 06:17:10;;;;;;;1.30;0.40;;;17.50;99.90;;;;;;5032463;28;20209;-71
2023/08/22 06:19:35;;;;;;;1.55;0.50;;;17.60;99.90;;;;;;5034649;28;20687;-71
2023/08/22 06:22:01;;;;;;;0.73;0.32;;;17.60;99.90;;;;;;5018454;28;20174;-71
2023/08/22 06:24:26;;;;;;;1.23;0.55;;;17.60;99.90;;;;;;5051707;28;20177;-71
2023/08/22 06:26:52;;;;;;;2.80;0.80;;;17.70;99.90;;;;;;5045250;28;20224;-71
2023/08/22 06:29:18;;;;;;;2.53;0.50;;;17.80;99.90;;;;;;5052170;28;20174;-72
2023/08/22 06:31:43;;;;;;;2.50;0.70;;;17.80;99.90;;;;;;5052371;28;20177;-72
2023/08/22 06:34:10;;;;;;;1.38;0.57;;;17.90;99.90;;;;;;5052364;28;20204;-72
2023/08/22 06:36:35;;;;;;;3.25;0.80;;;17.90;99.90;;;;;;5051035;28;20184;-71
2023/08/22 06:39:03;;;;;;;0.65;0.45;;;17.90;99.90;;;;;;5052071;28;20225;-72
2023/08/22 06:41:28;;;;;;;2.15;0.60;;;18.10;99.90;;;;;;5050739;28;20196;-72
2023/08/22 06:43:54;;;;;;;2.85;0.65;;;18.00;99.90;;;;;;5052119;28;20207;-72
2023/08/22 06:46:21;;;;;;;2.92;0.70;;;18.10;99.90;;;;;;5035556;28;20687;-71
2023/08/22 06:48:48;;;;;;;1.85;0.57;;;18.40;99.90;;;;;;5051735;28;20200;-72
2023/08/22 06:51:14;;;;;;;1.83;0.50;;;18.40;99.90;;;;;;5032889;28;20170;-72
2023/08/22 06:53:40;;;;;;;4.13;0.77;;;18.20;99.90;;;;;;5031653;28;20679;-72
2023/08/22 06:56:05;;;;;;;1.60;0.68;;;18.30;99.90;;;;;;5031472;28;20268;-72
2023/08/22 06:58:31;;;;;;;1.73;0.47;;;18.30;99.90;;;;;;5031699;28;20677;-72
2023/08/22 07:00:57;;;;;;;2.05;0.70;;;;;;;;;;5031814;28;20640;-72
2023/08/22 07:03:23;;;;;;;3.35;0.68;;;18.50;99.90;;;;;;5032848;28;20205;-72
2023/08/22 07:05:55;;;;;;;2.45;0.60;;;18.60;99.90;;;;;;5045022;28;20268;-72
2023/08/22 07:08:21;;;;;;;2.00;0.60;;;18.90;99.90;;;;;;5051380;28;20169;-72
2023/08/22 07:10:46;;;;;;;2.50;0.80;;;18.80;99.90;;;;;;5051431;28;20177;-72
2023/08/22 07:13:13;;;;;;;1.48;0.45;;;19.00;99.90;;;;;;5051141;28;20219;-72
2023/08/22 07:15:39;;;;;;;2.25;0.50;;;18.80;99.90;;;;;;5050160;28;20188;-72
2023/08/22 07:18:05;;;;;;;1.17;0.60;;;18.80;99.90;;;;;;5044653;28;20174;-72
2023/08/22 07:20:30;;;;;;;3.45;0.65;;;18.80;99.90;;;;;;5031320;28;20182;-72
2023/08/22 07:22:56;;;;;;;1.10;0.50;;;18.80;99.90;;;;;;5031578;28;20173;-71
2023/08/22 07:25:21;;;;;;;3.72;0.70;;;18.80;99.90;;;;;;5047231;28;20219;-72
2023/08/22 07:27:47;;;;;;;2.78;0.60;;;18.90;99.90;;;;;;5051145;28;20219;-72
2023/08/22 07:30:12;;;;;;;1.85;0.50;;;19.00;99.90;;;;;;5049588;28;20187;-71
2023/08/22 07:32:38;;;;;;;3.75;0.70;;;19.10;99.90;;;;;;5035996;28;20180;-72
2023/08/22 07:35:04;;;;;;;1.08;0.43;;;19.10;99.90;;;;;;5032480;28;20186;-71
2023/08/22 07:37:30;;;;;;;3.95;0.70;;;19.10;99.90;;;;;;5038752;28;20184;-71
2023/08/22 07:39:56;;;;;;;1.40;0.50;;;18.80;99.90;;;;;;5033062;28;20585;-71
2023/08/22 07:42:22;;;;;;;2.70;0.30;;;18.70;99.90;;;;;;5032151;28;20205;-72
2023/08/22 07:44:48;;;;;;;4.70;0.73;;;18.80;99.90;;;;;;5031156;28;20678;-69
2023/08/22 07:47:13;;;;;;;3.50;0.45;;;18.90;99.90;;;;;;5030932;28;20169;-71
2023/08/22 07:49:39;;;;;;;0.63;0.50;;;18.90;99.90;;;;;;5036024;28;20181;-70
2023/08/22 07:52:05;;;;;;;1.85;0.70;;;19.10;99.90;;;;;;5050851;28;20169;-70
2023/08/22 07:54:32;;;;;;;1.35;0.47;;;18.80;99.90;;;;;;5050839;28;20161;-71
2023/08/22 07:56:57;;;;;;;2.53;0.52;;;18.90;99.90;;;;;;5050812;28;20639;-70
2023/08/22 07:59:23;;;;;;;2.63;0.57;;;19.00;99.90;;;;;;5049630;28;20219;-70
2023/08/22 08:01:49;;;;;;;2.20;0.50;;;19.10;99.90;;;;;;5049565;28;20165;-70
2023/08/22 08:04:15;;;;;;;2.97;0.65;;;19.10;99.90;;;;;;5045911;28;20201;-71
2023/08/22 08:06:41;;;;;;;2.65;0.70;;;19.50;99.90;;;;;;5049188;28;20663;-70
2023/08/22 08:09:07;;;;;;;3.38;0.68;;;19.20;99.90;;;;;;5050770;28;20165;-71
2023/08/22 08:11:33;;;;;;;3.53;0.73;;;19.50;99.90;;;;;;5048333;28;20234;-70
2023/08/22 08:13:58;;;;;;;5.47;0.73;;;19.60;99.90;;;;;;5069078;28;20694;-70
2023/08/22 08:16:24;;;;;;;4.30;0.80;;;19.70;99.90;;;;;;5071972;28;20169;-70
2023/08/22 08:18:52;;;;;;;3.60;0.73;;;20.00;99.90;;;;;;5074618;28;20675;-70
2023/08/22 08:21:17;;;;;;;5.85;0.70;;;21.50;99.90;;;;;;5074741;28;20165;-70
2023/08/22 08:23:44;;;;;;;4.40;0.70;;;21.40;99.90;;;;;;5059648;28;20710;-71
2023/08/22 08:26:10;;;;;;;2.30;0.38;;;22.30;99.90;;;;;;5044236;28;20254;-72
2023/08/22 08:28:36;;;;;;;4.25;0.82;;;22.80;99.90;;;;;;5049411;28;20177;-71
2023/08/22 08:31:02;;;;;;;2.50;0.77;;;23.10;99.90;;;;;;5043864;28;20599;-72
2023/08/22 08:33:28;;;;;;;3.40;0.88;;;;;;;;;;5052568;28;20181;-71
2023/08/22 08:35:54;;;;;;;6.13;1.05;;;23.20;99.90;;;;;;5054016;28;20196;-71
2023/08/22 08:38:19;;;;;;;3.47;0.80;;;23.30;99.90;;;;;;5054036;28;20181;-71
2023/08/22 08:40:46;;;;;;;4.65;1.23;;;;;;;;;;5049193;28;20169;-72
2023/08/22 08:43:11;;;;;;;3.42;1.00;;;23.60;99.90;;;;;;5054687;28;20246;-72
2023/08/22 08:45:39;;;;;;;5.07;1.15;;;23.70;99.90;;;;;;5054216;28;20643;-72
2023/08/22 08:48:06;;;;;;;5.88;1.15;;;23.40;99.90;;;;;;5046062;28;20227;-72
2023/08/22 08:50:32;;;;;;;3.15;1.00;;;23.10;99.90;;;;;;5032961;28;20178;-72
2023/08/22 08:52:58;;;;;;;5.32;1.25;;;22.50;99.90;;;;;;5034232;28;20253;-72
2023/08/22 08:55:24;;;;;;;3.03;0.80;;;22.50;99.90;;;;;;5035972;28;20675;-71
2023/08/22 08:57:52;;;;;;;7.03;1.45;;;21.90;99.90;;;;;;5052361;28;20166;-71
2023/08/22 09:00:18;;;;;;;3.97;1.25;;;21.00;99.90;;;;;;5043375;28;20295;-71
2023/08/22 09:02:44;;;;;;;4.47;1.10;;;22.10;99.90;;;;;;5035225;28;20275;-71
2023/08/22 09:05:11;;;;;;;1.90;0.90;;;21.80;99.90;;;;;;5041124;28;20193;-70
2023/08/22 09:07:37;;;;;;;3.55;0.77;;;21.50;99.90;;;;;;5053468;28;20163;-70
2023/08/22 09:10:04;;;;;;;6.35;1.25;;;21.90;99.90;;;;;;5053806;28;20194;-71
2023/08/22 09:12:34;;;;;;;3.80;1.20;;;22.90;99.90;;;;;;5053436;28;20255;-71
2023/08/22 09:15:00;;;;;;;5.30;0.85;;;23.80;99.90;;;;;;5053611;28;20280;-71
2023/08/22 09:17:30;;;;;;;3.45;1.30;;;24.10;99.90;;;;;;5053437;28;20169;-71
2023/08/22 09:19:56;;;;;;;3.08;1.10;;;23.80;99.90;;;;;;5053414;28;20217;-72
2023/08/22 09:22:29;;;;;;;5.03;1.23;;;23.50;99.90;;;;;;5053373;28;20166;-71
2023/08/22 09:24:55;;;;;;;5.68;1.33;;;23.90;99.90;;;;;;5053721;28;20180;-71
2023/08/22 09:27:28;;;;;;;5.22;1.42;;;23.70;99.90;;;;;;5052736;28;20312;-72
2023/08/22 09:30:01;;;;;;;5.00;1.20;;;23.50;99.90;;;;;;5053279;28;20235;-72
2023/08/22 09:32:26;;;;;;;4.00;1.20;;;22.50;99.90;;;;;;5051264;28;20165;-73
2023/08/22 09:34:54;;;;;;;4.07;1.00;;;22.20;99.90;;;;;;5052046;28;20267;-72
2023/08/22 09:37:40;;;;;;;7.32;1.33;;;22.60;99.90;;;;;;5046796;28;20177;-71
2023/08/22 09:40:09;;;;;;;6.22;1.23;;;22.70;23.70;;;;;;5033450;28;20268;-72
2023/08/22 09:42:40;;;;;;;4.28;1.20;;;22.50;1.00;;;;;;5033167;28;20241;-72
2023/08/22 09:45:07;;;;;;;6.15;1.33;;;23.30;1.00;;;;;;5045420;28;20178;-71
2023/08/22 09:47:38;;;;;;;4.85;1.48;;;23.20;1.00;;;;;;5050485;28;20185;-71
2023/08/22 09:50:06;;;;;;;7.13;1.30;;;23.20;1.00;;;;;;5052746;28;20215;-72
2023/08/22 09:52:36;;;;;;;2.80;1.10;;;23.50;38.90;;;;;;5051693;28;20173;-71
2023/08/22 09:55:02;;;;;;;6.35;1.48;;;24.40;1.00;;;;;;5052822;28;20223;-71
2023/08/22 09:57:29;;;;;;;5.25;1.50;;;24.30;1.00;;;;;;5052889;28;20299;-71
2023/08/22 09:59:55;;;;;;;7.82;1.33;;;24.70;99.90;;;;;;5053065;28;20859;-71
2023/08/22 10:02:21;;;;;;;8.02;1.50;;;25.00;61.00;;;;;;5052588;28;20170;-71
2023/08/22 10:04:47;;;;;;;7.53;1.63;;;24.60;1.00;;;;;;5052903;28;20637;-71
2023/08/22 10:07:13;;;;;;;8.38;1.80;;;24.00;1.00;;;;;;5052751;28;20181;-72
2023/08/22 10:09:42;;;;;;;7.80;1.42;;;23.90;1.00;;;;;;5052696;28;20184;-72
2023/08/22 10:12:11;;;;;;;4.80;1.33;;;23.10;1.00;;;;;;5052525;28;20180;-72
2023/08/22 10:14:48;;;;;;;10.93;1.58;;;22.60;8.20;;;;;;5052531;28;20256;-72
2023/08/22 10:17:13;;;;;;;40.67;3.95;;;22.10;1.00;;;;;;5052313;28;20651;-72
2023/08/22 10:19:41;;;;;;;14.27;2.03;;;23.10;1.00;;;;;;5052372;28;20213;-72
2023/08/22 10:22:09;;;;;;;8.10;1.58;;;23.50;1.00;;;;;;5052415;28;20173;-72
2023/08/22 10:24:35;;;;;;;5.07;1.35;;;24.50;1.00;;;;;;5052336;28;20762;-73
2023/08/22 10:27:09;;;;;;;3.40;1.23;;;24.70;99.90;;;;;;5052291;28;20311;-72
2023/08/22 10:29:46;;;;;;;7.55;1.15;;;24.00;1.00;;;;;;5052208;28;20181;-71
2023/08/22 10:32:12;;;;;;;8.32;1.58;;;23.50;1.00;;;;;;5052285;28;20172;-71
2023/08/22 10:34:37;;;;;;;6.40;1.60;;;23.10;1.00;;;;;;5052263;28;20574;-71
2023/08/22 10:37:03;;;;;;;11.02;1.63;;;22.80;99.90;;;;;;5052050;28;20535;-71
2023/08/22 10:39:40;;;;;;;6.95;1.40;;;23.30;99.90;;;;;;5052000;28;20303;-71
2023/08/22 10:42:18;;;;;;;11.18;1.90;;;23.40;1.00;;;;;;5052025;28;20169;-71
2023/08/22 10:44:54;;;;;;;6.05;1.40;;;23.10;1.00;;;;;;5052030;28;20173;-72
2023/08/22 10:47:27;;;;;;;7.60;1.50;;;22.90;1.00;;;;;;5051748;28;20172;-72
2023/08/22 10:49:54;;;;;;;7.00;1.38;;;23.90;1.00;;;;;;5051858;28;20181;-72
2023/08/22 10:52:33;;;;;;;6.70;1.52;;;24.50;1.00;;;;;;5051986;28;20177;-72
2023/08/22 10:55:00;;;;;;;7.15;1.35;;;25.80;99.90;;;;;;5050572;28;20698;-72
2023/08/22 10:57:36;;;;;;;6.57;1.27;;;25.00;99.90;;;;;;5051923;28;20181;-72
2023/08/22 11:00:13;;;;;;;3.97;1.02;;;23.80;1.00;;;;;;5051573;28;20299;-72
2023/08/22 11:02:40;;;;;;;4.47;1.25;;;24.70;14.20;;;;;;5051607;28;20248;-72
2023/08/22 11:05:11;;;;;;;5.57;1.42;;;25.50;12.70;;;;;;5050298;28;20195;-72
2023/08/22 11:07:41;;;;;;;5.45;1.17;;;26.50;99.90;;;;;;5051537;28;20165;-73
2023/08/22 11:10:19;;;;;;;4.22;1.17;;;26.80;1.00;;;;;;5051537;28;20230;-73
2023/08/22 11:12:46;;;;;;;7.00;1.55;;;28.20;1.00;;;;;;5051380;28;20773;-72
2023/08/22 11:15:13;;;;;;;6.18;1.58;;;28.00;1.00;;;;;;5051381;28;20267;-72
2023/08/22 11:17:43;;;;;;;4.32;1.50;;;28.40;99.90;;;;;;5051596;28;20173;-72
2023/08/22 11:20:16;;;;;;;4.32;1.10;;;28.70;99.90;;;;;;5051395;28;20213;-72
2023/08/22 11:22:43;;;;;;;5.07;1.25;;;28.50;1.00;;;;;;5050334;28;20173;-73
2023/08/22 11:25:10;;;;;;;6.57;1.60;;;28.20;1.00;;;;;;5051221;28;20738;-72
2023/08/22 11:27:37;;;;;;;4.25;1.20;;;28.70;1.00;;;;;;5049902;28;20290;-73
2023/08/22 11:30:04;;;;;;;3.67;1.20;;;29.00;1.00;;;;;;5051646;28;20540;-73
2023/08/22 11:32:32;;;;;;;6.53;1.73;;;29.10;1.00;;;;;;5050131;28;20238;-72
2023/08/22 11:35:06;;;;;;;7.70;1.75;;;29.30;1.00;;;;;;5051234;28;20192;-73
2023/08/22 11:37:36;;;;;;;4.32;1.35;;;28.30;25.00;;;;;;5051068;28;20183;-73
2023/08/22 11:40:04;;;;;;;4.82;1.20;;;26.70;1.00;;;;;;5050915;28;20209;-72
2023/08/22 11:42:33;;;;;;;3.95;1.00;;;26.60;1.00;;;;;;5051059;28;20210;-73
2023/08/22 11:45:06;;;;;;;1.98;0.85;;;26.40;1.00;;;;;;5051227;28;20173;-72
2023/08/22 11:47:43;;;;;;;2.05;0.75;;;26.10;1.00;;;;;;5050873;28;20718;-72
2023/08/22 11:50:16;;;;;;;4.50;1.20;;;25.60;1.00;;;;;;5050822;28;20176;-71
2023/08/22 11:52:44;;;;;;;5.47;1.35;;;25.80;1.00;;;;;;5050626;28;20169;-72
2023/08/22 11:55:11;;;;;;;4.90;1.20;;;25.70;99.90;;;;;;5050807;28;20180;-72
2023/08/22 11:57:41;;;;;;;3.75;0.82;;;26.10;99.90;;;;;;5050739;28;20173;-73
2023/08/22 12:00:11;;;;;;;3.47;0.98;;;27.10;1.00;;;;;;5050895;28;20205;-72
2023/08/22 12:02:37;;;;;;;3.22;1.00;;;27.60;1.00;;;;;;5050723;28;20188;-72
2023/08/22 12:05:04;;;;;;;5.90;0.80;;;27.60;1.00;;;;;;5050674;28;20640;-72
2023/08/22 12:07:30;;;;;;;3.22;0.75;;;27.50;99.90;;;;;;5050860;28;20260;-72
2023/08/22 12:10:07;;;;;;;3.10;0.85;;;27.50;1.00;;;;;;5050719;28;20188;-72
2023/08/22 12:12:33;;;;;;;1.60;0.60;;;26.50;99.90;;;;;;5050681;28;20219;-72
2023/08/22 12:14:59;;;;;;;4.82;0.82;;;25.90;1.00;;;;;;5050643;28;20165;-72
2023/08/22 12:17:25;;;;;;;4.90;0.80;;;25.90;1.00;;;;;;5051003;28;20260;-71
2023/08/22 12:19:51;;;;;;;6.65;1.52;;;25.50;1.00;;;;;;5050849;28;20325;-73
2023/08/22 12:22:17;;;;;;;6.03;1.10;;;26.70;1.00;;;;;;5050762;28;20672;-72
2023/08/22 12:24:46;;;;;;;5.00;0.88;;;26.80;1.00;;;;;;5050690;28;20645;-72
2023/08/22 12:27:12;;;;;;;2.00;0.88;;;26.70;1.00;;;;;;5050488;28;20217;-72
2023/08/22 12:29:39;;;;;;;4.90;0.90;;;26.60;1.00;;;;;;5050695;28;20177;-72
2023/08/22 12:32:05;;;;;;;2.25;0.90;;;25.90;99.90;;;;;;5049296;28;20256;-72
2023/08/22 12:34:31;;;;;;;6.35;0.90;;;25.70;99.90;;;;;;5050329;28;20252;-72
2023/08/22 12:36:57;;;;;;;2.90;0.65;;;25.70;99.90;;;;;;5050578;28;20260;-72
2023/08/22 12:39:22;;;;;;;3.55;0.70;;;25.10;1.00;;;;;;5050550;28;20209;-71
2023/08/22 12:41:48;;;;;;;2.85;0.88;;;24.40;1.00;;;;;;5050565;28;20632;-72
2023/08/22 12:44:14;;;;;;;4.78;0.82;;;24.00;1.00;;;;;;5050515;28;20195;-72
2023/08/22 12:46:40;;;;;;;5.30;1.10;;;24.10;99.90;;;;;;5049091;28;20169;-70
2023/08/22 12:49:05;;;;;;;2.47;0.98;;;24.20;99.90;;;;;;5050584;28;20260;-70
2023/08/22 12:51:31;;;;;;;5.32;1.05;;;24.40;1.00;;;;;;5050403;28;20277;-72